Orléans-Saint-Denis-de-l'Hôtel Airport

Airport
ICAO code: 
LFOZ
Summary
ICAO Region: 
EUR
Territory: 
Location: 
, Centre
Serving: 
Orleans
Elevation: 
396 ft
Coordinates: 
Aerial View: 
47° 53' 49.006" N, 2° 9' 47.999" E
Metar
Observation
LFOZ 240600Z AUTO 06005KT 4700 BR NSC M02/M02 Q1030
Station
Orléans - Saint-Denis-de-l'Hôtel
Date/Time
2022-01-24 06:00:00
Wind direction
60°
Wind speed
05 kts
Lowest cloud amount
nil significant cloud
Temperature
-2°C
Dew point
-2°C
Humidity
100%
QNH
1030 hPa
Weather condition
n/a

Runways

Designator Length Width Surface Rops
5/23 1392 30 ASP No/No
Airport map: 
Aerial View: 

SKYbrary Partners:

Safety knowledge contributed by: